sensor_id;sensor_type;location;lat;lon;timestamp;P1;durP1;ratioP1;P2;durP2;ratioP2
22543;SDS011;11438;52.044;8.716;2022-07-24T00:00:00;2.50;;;1.25;;
22543;SDS011;11438;52.044;8.716;2022-07-24T00:02:25;2.45;;;1.30;;
22543;SDS011;11438;52.044;8.716;2022-07-24T00:04:51;2.25;;;1.40;;
22543;SDS011;11438;52.044;8.716;2022-07-24T00:07:21;1.45;;;1.35;;
22543;SDS011;11438;52.044;8.716;2022-07-24T00:09:47;2.90;;;1.05;;
22543;SDS011;11438;52.044;8.716;2022-07-24T00:12:12;1.85;;;1.52;;
22543;SDS011;11438;52.044;8.716;2022-07-24T00:14:38;1.50;;;1.10;;
22543;SDS011;11438;52.044;8.716;2022-07-24T00:17:03;1.60;;;1.23;;
22543;SDS011;11438;52.044;8.716;2022-07-24T00:19:28;1.50;;;1.40;;
22543;SDS011;11438;52.044;8.716;2022-07-24T00:21:54;3.42;;;1.27;;
22543;SDS011;11438;52.044;8.716;2022-07-24T00:24:22;2.30;;;1.70;;
22543;SDS011;11438;52.044;8.716;2022-07-24T00:26:47;2.28;;;1.60;;
22543;SDS011;11438;52.044;8.716;2022-07-24T00:29:13;2.20;;;1.50;;
22543;SDS011;11438;52.044;8.716;2022-07-24T00:31:38;1.70;;;1.15;;
22543;SDS011;11438;52.044;8.716;2022-07-24T00:34:04;2.20;;;1.52;;
22543;SDS011;11438;52.044;8.716;2022-07-24T00:36:29;2.03;;;1.50;;
22543;SDS011;11438;52.044;8.716;2022-07-24T00:38:55;1.88;;;1.40;;
22543;SDS011;11438;52.044;8.716;2022-07-24T00:41:20;1.52;;;1.33;;
22543;SDS011;11438;52.044;8.716;2022-07-24T00:46:45;2.40;;;1.42;;
22543;SDS011;11438;52.044;8.716;2022-07-24T00:49:13;1.95;;;1.52;;
22543;SDS011;11438;52.044;8.716;2022-07-24T00:51:42;1.80;;;1.50;;
22543;SDS011;11438;52.044;8.716;2022-07-24T00:54:09;1.90;;;1.42;;
22543;SDS011;11438;52.044;8.716;2022-07-24T00:56:36;2.92;;;1.30;;
22543;SDS011;11438;52.044;8.716;2022-07-24T00:59:03;2.55;;;1.40;;
22543;SDS011;11438;52.044;8.716;2022-07-24T01:01:29;2.03;;;1.42;;
22543;SDS011;11438;52.044;8.716;2022-07-24T01:03:55;4.07;;;1.40;;
22543;SDS011;11438;52.044;8.716;2022-07-24T01:06:21;2.35;;;1.50;;
22543;SDS011;11438;52.044;8.716;2022-07-24T01:08:47;2.13;;;1.48;;
22543;SDS011;11438;52.044;8.716;2022-07-24T01:11:13;2.13;;;1.20;;
22543;SDS011;11438;52.044;8.716;2022-07-24T01:13:39;1.80;;;1.45;;
22543;SDS011;11438;52.044;8.716;2022-07-24T01:16:06;2.10;;;1.40;;
22543;SDS011;11438;52.044;8.716;2022-07-24T01:18:32;2.05;;;1.58;;
22543;SDS011;11438;52.044;8.716;2022-07-24T01:20:58;2.67;;;1.50;;
22543;SDS011;11438;52.044;8.716;2022-07-24T01:23:24;3.50;;;1.52;;
22543;SDS011;11438;52.044;8.716;2022-07-24T01:25:49;2.38;;;1.52;;
22543;SDS011;11438;52.044;8.716;2022-07-24T01:28:16;2.00;;;1.42;;
22543;SDS011;11438;52.044;8.716;2022-07-24T01:30:42;1.63;;;1.30;;
22543;SDS011;11438;52.044;8.716;2022-07-24T01:33:07;2.10;;;1.63;;
22543;SDS011;11438;52.044;8.716;2022-07-24T01:35:33;2.35;;;1.70;;
22543;SDS011;11438;52.044;8.716;2022-07-24T01:37:58;2.78;;;1.50;;
22543;SDS011;11438;52.044;8.716;2022-07-24T01:40:24;2.15;;;1.50;;
22543;SDS011;11438;52.044;8.716;2022-07-24T01:42:49;1.27;;;1.17;;
22543;SDS011;11438;52.044;8.716;2022-07-24T01:45:15;2.53;;;1.50;;
22543;SDS011;11438;52.044;8.716;2022-07-24T01:47:41;2.05;;;1.50;;
22543;SDS011;11438;52.044;8.716;2022-07-24T01:50:08;2.42;;;1.27;;
22543;SDS011;11438;52.044;8.716;2022-07-24T01:52:34;2.97;;;1.48;;
22543;SDS011;11438;52.044;8.716;2022-07-24T01:55:00;1.98;;;1.45;;
22543;SDS011;11438;52.044;8.716;2022-07-24T01:57:26;1.33;;;1.20;;
22543;SDS011;11438;52.044;8.716;2022-07-24T01:59:51;2.40;;;1.58;;
22543;SDS011;11438;52.044;8.716;2022-07-24T02:02:17;1.67;;;1.30;;
22543;SDS011;11438;52.044;8.716;2022-07-24T02:04:42;2.70;;;1.60;;
22543;SDS011;11438;52.044;8.716;2022-07-24T02:07:08;1.95;;;1.33;;
22543;SDS011;11438;52.044;8.716;2022-07-24T02:09:33;1.30;;;1.05;;
22543;SDS011;11438;52.044;8.716;2022-07-24T02:11:59;3.25;;;1.15;;
22543;SDS011;11438;52.044;8.716;2022-07-24T02:14:24;1.60;;;1.30;;
22543;SDS011;11438;52.044;8.716;2022-07-24T02:16:50;1.10;;;1.00;;
22543;SDS011;11438;52.044;8.716;2022-07-24T02:19:15;2.00;;;1.52;;
22543;SDS011;11438;52.044;8.716;2022-07-24T02:21:41;2.05;;;1.38;;
22543;SDS011;11438;52.044;8.716;2022-07-24T02:24:06;2.08;;;1.23;;
22543;SDS011;11438;52.044;8.716;2022-07-24T02:26:32;1.42;;;1.23;;
22543;SDS011;11438;52.044;8.716;2022-07-24T02:28:57;2.00;;;1.45;;
22543;SDS011;11438;52.044;8.716;2022-07-24T02:31:23;1.92;;;1.30;;
22543;SDS011;11438;52.044;8.716;2022-07-24T02:33:48;2.65;;;1.33;;
22543;SDS011;11438;52.044;8.716;2022-07-24T02:36:14;1.42;;;1.30;;
22543;SDS011;11438;52.044;8.716;2022-07-24T02:38:40;2.97;;;1.35;;
22543;SDS011;11438;52.044;8.716;2022-07-24T02:41:06;2.63;;;1.30;;
22543;SDS011;11438;52.044;8.716;2022-07-24T02:43:32;2.38;;;1.23;;
22543;SDS011;11438;52.044;8.716;2022-07-24T02:45:58;2.55;;;1.27;;
22543;SDS011;11438;52.044;8.716;2022-07-24T02:48:23;3.55;;;1.30;;
22543;SDS011;11438;52.044;8.716;2022-07-24T02:50:49;1.30;;;1.20;;
22543;SDS011;11438;52.044;8.716;2022-07-24T02:53:16;2.83;;;1.45;;
22543;SDS011;11438;52.044;8.716;2022-07-24T02:55:41;3.33;;;1.67;;
22543;SDS011;11438;52.044;8.716;2022-07-24T02:58:07;2.10;;;1.50;;
22543;SDS011;11438;52.044;8.716;2022-07-24T03:00:32;1.83;;;1.40;;
22543;SDS011;11438;52.044;8.716;2022-07-24T03:02:58;2.30;;;1.50;;
22543;SDS011;11438;52.044;8.716;2022-07-24T03:05:23;2.22;;;1.40;;
22543;SDS011;11438;52.044;8.716;2022-07-24T03:07:49;2.15;;;1.45;;
22543;SDS011;11438;52.044;8.716;2022-07-24T03:10:14;2.67;;;1.38;;
22543;SDS011;11438;52.044;8.716;2022-07-24T03:12:41;1.75;;;1.27;;
22543;SDS011;11438;52.044;8.716;2022-07-24T03:15:07;1.20;;;1.10;;
22543;SDS011;11438;52.044;8.716;2022-07-24T03:17:34;2.85;;;1.67;;
22543;SDS011;11438;52.044;8.716;2022-07-24T03:19:59;2.47;;;1.33;;
22543;SDS011;11438;52.044;8.716;2022-07-24T03:22:25;1.25;;;1.15;;
22543;SDS011;11438;52.044;8.716;2022-07-24T03:24:51;1.67;;;1.17;;
22543;SDS011;11438;52.044;8.716;2022-07-24T03:27:16;2.25;;;1.40;;
22543;SDS011;11438;52.044;8.716;2022-07-24T03:29:42;2.42;;;1.27;;
22543;SDS011;11438;52.044;8.716;2022-07-24T03:32:07;1.30;;;1.15;;
22543;SDS011;11438;52.044;8.716;2022-07-24T03:34:33;4.82;;;1.50;;
22543;SDS011;11438;52.044;8.716;2022-07-24T03:36:58;1.92;;;1.40;;
22543;SDS011;11438;52.044;8.716;2022-07-24T03:39:24;1.88;;;1.50;;
22543;SDS011;11438;52.044;8.716;2022-07-24T03:41:49;3.03;;;1.35;;
22543;SDS011;11438;52.044;8.716;2022-07-24T03:44:15;2.55;;;1.73;;
22543;SDS011;11438;52.044;8.716;2022-07-24T03:46:40;2.63;;;1.45;;
22543;SDS011;11438;52.044;8.716;2022-07-24T03:49:06;2.60;;;1.67;;
22543;SDS011;11438;52.044;8.716;2022-07-24T03:51:31;2.40;;;1.42;;
22543;SDS011;11438;52.044;8.716;2022-07-24T03:53:57;2.20;;;1.67;;
22543;SDS011;11438;52.044;8.716;2022-07-24T03:56:22;4.10;;;1.75;;
22543;SDS011;11438;52.044;8.716;2022-07-24T03:58:48;2.60;;;1.40;;
22543;SDS011;11438;52.044;8.716;2022-07-24T04:01:13;1.85;;;1.30;;
22543;SDS011;11438;52.044;8.716;2022-07-24T04:03:39;3.15;;;1.48;;
22543;SDS011;11438;52.044;8.716;2022-07-24T04:06:04;1.65;;;1.30;;
22543;SDS011;11438;52.044;8.716;2022-07-24T04:08:31;2.67;;;1.30;;
22543;SDS011;11438;52.044;8.716;2022-07-24T04:10:57;2.15;;;1.30;;
22543;SDS011;11438;52.044;8.716;2022-07-24T04:13:24;1.70;;;1.52;;
22543;SDS011;11438;52.044;8.716;2022-07-24T04:15:50;1.95;;;1.17;;
22543;SDS011;11438;52.044;8.716;2022-07-24T04:18:16;1.85;;;1.23;;
22543;SDS011;11438;52.044;8.716;2022-07-24T04:20:41;1.60;;;1.50;;
22543;SDS011;11438;52.044;8.716;2022-07-24T04:23:07;2.03;;;1.35;;
22543;SDS011;11438;52.044;8.716;2022-07-24T04:25:32;3.90;;;1.58;;
22543;SDS011;11438;52.044;8.716;2022-07-24T04:27:59;2.30;;;1.70;;
22543;SDS011;11438;52.044;8.716;2022-07-24T04:30:28;1.67;;;1.40;;
22543;SDS011;11438;52.044;8.716;2022-07-24T04:32:54;1.42;;;1.20;;
22543;SDS011;11438;52.044;8.716;2022-07-24T04:35:19;1.30;;;1.10;;
22543;SDS011;11438;52.044;8.716;2022-07-24T04:37:45;2.00;;;1.20;;
22543;SDS011;11438;52.044;8.716;2022-07-24T04:40:11;2.20;;;1.30;;
22543;SDS011;11438;52.044;8.716;2022-07-24T04:42:37;2.15;;;1.30;;
22543;SDS011;11438;52.044;8.716;2022-07-24T04:45:04;2.72;;;1.60;;
22543;SDS011;11438;52.044;8.716;2022-07-24T04:47:30;2.58;;;1.10;;
22543;SDS011;11438;52.044;8.716;2022-07-24T04:49:55;3.78;;;1.73;;
22543;SDS011;11438;52.044;8.716;2022-07-24T04:52:21;1.27;;;1.13;;
22543;SDS011;11438;52.044;8.716;2022-07-24T04:54:46;2.45;;;1.50;;
22543;SDS011;11438;52.044;8.716;2022-07-24T04:57:12;5.10;;;1.30;;
22543;SDS011;11438;52.044;8.716;2022-07-24T04:59:38;1.80;;;1.13;;
22543;SDS011;11438;52.044;8.716;2022-07-24T05:02:03;2.15;;;1.33;;
22543;SDS011;11438;52.044;8.716;2022-07-24T05:04:29;1.40;;;1.20;;
22543;SDS011;11438;52.044;8.716;2022-07-24T05:06:54;1.90;;;1.40;;
22543;SDS011;11438;52.044;8.716;2022-07-24T05:09:20;1.73;;;1.25;;
22543;SDS011;11438;52.044;8.716;2022-07-24T05:11:45;1.70;;;1.30;;
22543;SDS011;11438;52.044;8.716;2022-07-24T05:14:11;2.80;;;1.50;;
22543;SDS011;11438;52.044;8.716;2022-07-24T05:16:36;3.47;;;1.35;;
22543;SDS011;11438;52.044;8.716;2022-07-24T05:19:01;2.08;;;1.55;;
22543;SDS011;11438;52.044;8.716;2022-07-24T05:21:27;1.70;;;1.48;;
22543;SDS011;11438;52.044;8.716;2022-07-24T05:23:53;3.17;;;1.67;;
22543;SDS011;11438;52.044;8.716;2022-07-24T05:26:19;2.83;;;1.88;;
22543;SDS011;11438;52.044;8.716;2022-07-24T05:28:44;1.90;;;1.70;;
22543;SDS011;11438;52.044;8.716;2022-07-24T05:31:10;3.30;;;1.48;;
22543;SDS011;11438;52.044;8.716;2022-07-24T05:33:35;2.67;;;1.58;;
22543;SDS011;11438;52.044;8.716;2022-07-24T05:36:01;4.20;;;1.63;;
22543;SDS011;11438;52.044;8.716;2022-07-24T05:38:26;2.28;;;1.65;;
22543;SDS011;11438;52.044;8.716;2022-07-24T05:40:52;2.38;;;1.38;;
22543;SDS011;11438;52.044;8.716;2022-07-24T05:43:17;4.32;;;1.40;;
22543;SDS011;11438;52.044;8.716;2022-07-24T05:45:43;3.03;;;1.63;;
22543;SDS011;11438;52.044;8.716;2022-07-24T05:48:09;2.92;;;1.70;;
22543;SDS011;11438;52.044;8.716;2022-07-24T05:50:34;8.98;;;1.90;;
22543;SDS011;11438;52.044;8.716;2022-07-24T05:53:00;2.28;;;1.60;;
22543;SDS011;11438;52.044;8.716;2022-07-24T05:55:25;1.30;;;1.20;;
22543;SDS011;11438;52.044;8.716;2022-07-24T05:57:51;4.65;;;1.70;;
22543;SDS011;11438;52.044;8.716;2022-07-24T06:00:16;4.65;;;1.65;;
22543;SDS011;11438;52.044;8.716;2022-07-24T06:02:44;6.38;;;1.23;;
22543;SDS011;11438;52.044;8.716;2022-07-24T06:05:11;2.40;;;1.55;;
22543;SDS011;11438;52.044;8.716;2022-07-24T06:07:36;2.80;;;1.73;;
22543;SDS011;11438;52.044;8.716;2022-07-24T06:10:02;3.30;;;1.60;;
22543;SDS011;11438;52.044;8.716;2022-07-24T06:12:28;4.35;;;1.70;;
22543;SDS011;11438;52.044;8.716;2022-07-24T06:14:54;4.75;;;2.05;;
22543;SDS011;11438;52.044;8.716;2022-07-24T06:17:19;1.60;;;1.38;;
22543;SDS011;11438;52.044;8.716;2022-07-24T06:19:45;2.45;;;1.63;;
22543;SDS011;11438;52.044;8.716;2022-07-24T06:22:10;2.90;;;1.70;;
22543;SDS011;11438;52.044;8.716;2022-07-24T06:24:36;1.65;;;1.35;;
22543;SDS011;11438;52.044;8.716;2022-07-24T06:27:01;3.97;;;1.63;;
22543;SDS011;11438;52.044;8.716;2022-07-24T06:29:28;3.38;;;1.58;;
22543;SDS011;11438;52.044;8.716;2022-07-24T06:31:53;2.00;;;1.70;;
22543;SDS011;11438;52.044;8.716;2022-07-24T06:34:19;2.17;;;1.50;;
22543;SDS011;11438;52.044;8.716;2022-07-24T06:36:48;2.90;;;1.63;;
22543;SDS011;11438;52.044;8.716;2022-07-24T06:39:14;2.13;;;1.38;;
22543;SDS011;11438;52.044;8.716;2022-07-24T06:41:39;1.95;;;1.63;;
22543;SDS011;11438;52.044;8.716;2022-07-24T06:44:05;3.35;;;1.50;;
22543;SDS011;11438;52.044;8.716;2022-07-24T06:46:30;5.13;;;1.30;;
22543;SDS011;11438;52.044;8.716;2022-07-24T06:48:56;2.42;;;1.40;;
22543;SDS011;11438;52.044;8.716;2022-07-24T06:51:21;4.68;;;1.27;;
22543;SDS011;11438;52.044;8.716;2022-07-24T06:53:47;1.63;;;1.35;;
22543;SDS011;11438;52.044;8.716;2022-07-24T06:56:12;2.60;;;1.58;;
22543;SDS011;11438;52.044;8.716;2022-07-24T06:58:38;3.33;;;1.48;;
22543;SDS011;11438;52.044;8.716;2022-07-24T07:01:03;2.58;;;1.55;;
22543;SDS011;11438;52.044;8.716;2022-07-24T07:03:29;2.78;;;1.42;;
22543;SDS011;11438;52.044;8.716;2022-07-24T07:05:54;1.40;;;1.10;;
22543;SDS011;11438;52.044;8.716;2022-07-24T07:08:20;3.65;;;1.50;;
22543;SDS011;11438;52.044;8.716;2022-07-24T07:10:45;1.90;;;1.48;;
22543;SDS011;11438;52.044;8.716;2022-07-24T07:13:11;2.90;;;1.58;;
22543;SDS011;11438;52.044;8.716;2022-07-24T07:15:36;2.10;;;1.48;;
22543;SDS011;11438;52.044;8.716;2022-07-24T07:18:02;3.42;;;1.75;;
22543;SDS011;11438;52.044;8.716;2022-07-24T07:20:28;2.05;;;1.40;;
22543;SDS011;11438;52.044;8.716;2022-07-24T07:22:53;4.00;;;1.60;;
22543;SDS011;11438;52.044;8.716;2022-07-24T07:25:19;2.83;;;1.52;;
22543;SDS011;11438;52.044;8.716;2022-07-24T07:27:44;2.03;;;1.45;;
22543;SDS011;11438;52.044;8.716;2022-07-24T07:30:09;2.42;;;1.75;;
22543;SDS011;11438;52.044;8.716;2022-07-24T07:32:37;2.88;;;1.50;;
22543;SDS011;11438;52.044;8.716;2022-07-24T07:35:03;2.42;;;1.52;;
22543;SDS011;11438;52.044;8.716;2022-07-24T07:37:29;3.58;;;1.73;;
22543;SDS011;11438;52.044;8.716;2022-07-24T07:39:54;5.03;;;1.90;;
22543;SDS011;11438;52.044;8.716;2022-07-24T07:42:20;3.13;;;1.60;;
22543;SDS011;11438;52.044;8.716;2022-07-24T07:44:45;2.25;;;1.80;;
22543;SDS011;11438;52.044;8.716;2022-07-24T07:47:12;3.33;;;1.85;;
22543;SDS011;11438;52.044;8.716;2022-07-24T07:49:38;3.47;;;2.45;;
22543;SDS011;11438;52.044;8.716;2022-07-24T07:52:03;2.55;;;2.00;;
22543;SDS011;11438;52.044;8.716;2022-07-24T07:54:29;2.85;;;1.77;;
22543;SDS011;11438;52.044;8.716;2022-07-24T07:56:55;2.10;;;1.67;;
22543;SDS011;11438;52.044;8.716;2022-07-24T07:59:20;3.00;;;2.15;;
22543;SDS011;11438;52.044;8.716;2022-07-24T08:01:46;2.80;;;2.05;;
22543;SDS011;11438;52.044;8.716;2022-07-24T08:04:11;2.75;;;1.77;;
22543;SDS011;11438;52.044;8.716;2022-07-24T08:06:37;3.40;;;2.15;;
22543;SDS011;11438;52.044;8.716;2022-07-24T08:09:02;3.90;;;2.67;;
22543;SDS011;11438;52.044;8.716;2022-07-24T08:11:29;3.85;;;3.00;;
22543;SDS011;11438;52.044;8.716;2022-07-24T08:13:54;4.72;;;2.65;;
22543;SDS011;11438;52.044;8.716;2022-07-24T08:16:20;3.15;;;2.50;;
22543;SDS011;11438;52.044;8.716;2022-07-24T08:18:45;5.65;;;2.53;;
22543;SDS011;11438;52.044;8.716;2022-07-24T08:21:11;2.92;;;2.70;;
22543;SDS011;11438;52.044;8.716;2022-07-24T08:23:37;3.17;;;2.65;;
22543;SDS011;11438;52.044;8.716;2022-07-24T08:26:02;3.33;;;2.80;;
22543;SDS011;11438;52.044;8.716;2022-07-24T08:28:28;3.83;;;2.67;;
22543;SDS011;11438;52.044;8.716;2022-07-24T08:30:53;3.97;;;2.80;;
22543;SDS011;11438;52.044;8.716;2022-07-24T08:33:19;3.35;;;2.67;;
22543;SDS011;11438;52.044;8.716;2022-07-24T08:35:44;3.80;;;2.83;;
22543;SDS011;11438;52.044;8.716;2022-07-24T08:38:10;3.20;;;2.90;;
22543;SDS011;11438;52.044;8.716;2022-07-24T08:40:36;4.85;;;2.83;;
22543;SDS011;11438;52.044;8.716;2022-07-24T08:43:03;6.03;;;3.45;;
22543;SDS011;11438;52.044;8.716;2022-07-24T08:45:32;3.95;;;3.17;;
22543;SDS011;11438;52.044;8.716;2022-07-24T08:48:02;3.53;;;2.90;;
22543;SDS011;11438;52.044;8.716;2022-07-24T08:50:29;3.60;;;2.97;;
22543;SDS011;11438;52.044;8.716;2022-07-24T08:52:56;4.22;;;2.67;;
22543;SDS011;11438;52.044;8.716;2022-07-24T08:55:23;3.58;;;2.90;;
22543;SDS011;11438;52.044;8.716;2022-07-24T08:57:48;4.88;;;2.83;;
22543;SDS011;11438;52.044;8.716;2022-07-24T09:00:14;4.00;;;2.80;;
22543;SDS011;11438;52.044;8.716;2022-07-24T09:02:40;4.13;;;2.88;;
22543;SDS011;11438;52.044;8.716;2022-07-24T09:05:05;3.30;;;2.65;;
22543;SDS011;11438;52.044;8.716;2022-07-24T09:07:32;3.88;;;2.78;;
22543;SDS011;11438;52.044;8.716;2022-07-24T09:10:04;4.20;;;2.92;;
22543;SDS011;11438;52.044;8.716;2022-07-24T09:12:35;3.22;;;2.70;;
22543;SDS011;11438;52.044;8.716;2022-07-24T09:15:14;2.92;;;2.55;;
22543;SDS011;11438;52.044;8.716;2022-07-24T09:17:48;3.90;;;2.88;;
22543;SDS011;11438;52.044;8.716;2022-07-24T09:20:24;3.88;;;3.05;;
22543;SDS011;11438;52.044;8.716;2022-07-24T09:22:58;4.47;;;2.72;;
22543;SDS011;11438;52.044;8.716;2022-07-24T09:25:25;4.57;;;2.85;;
22543;SDS011;11438;52.044;8.716;2022-07-24T09:27:56;4.13;;;2.83;;
22543;SDS011;11438;52.044;8.716;2022-07-24T09:30:30;3.55;;;2.80;;
22543;SDS011;11438;52.044;8.716;2022-07-24T09:32:59;4.22;;;3.45;;
22543;SDS011;11438;52.044;8.716;2022-07-24T09:35:29;4.60;;;2.92;;
22543;SDS011;11438;52.044;8.716;2022-07-24T09:38:00;3.38;;;2.72;;
22543;SDS011;11438;52.044;8.716;2022-07-24T09:40:29;4.82;;;3.10;;
22543;SDS011;11438;52.044;8.716;2022-07-24T09:43:22;4.07;;;3.08;;
22543;SDS011;11438;52.044;8.716;2022-07-24T09:45:56;5.20;;;3.60;;
22543;SDS011;11438;52.044;8.716;2022-07-24T09:48:39;3.88;;;3.15;;
22543;SDS011;11438;52.044;8.716;2022-07-24T09:51:16;6.60;;;3.17;;
22543;SDS011;11438;52.044;8.716;2022-07-24T09:53:42;5.28;;;3.40;;
22543;SDS011;11438;52.044;8.716;2022-07-24T09:56:16;4.72;;;3.20;;
22543;SDS011;11438;52.044;8.716;2022-07-24T10:01:11;5.10;;;3.72;;
22543;SDS011;11438;52.044;8.716;2022-07-24T10:03:39;7.25;;;3.60;;
22543;SDS011;11438;52.044;8.716;2022-07-24T10:06:06;4.43;;;3.33;;
22543;SDS011;11438;52.044;8.716;2022-07-24T10:08:35;4.25;;;3.40;;
22543;SDS011;11438;52.044;8.716;2022-07-24T10:11:02;3.58;;;3.08;;
22543;SDS011;11438;52.044;8.716;2022-07-24T10:13:28;4.05;;;3.13;;
22543;SDS011;11438;52.044;8.716;2022-07-24T10:18:50;5.55;;;3.28;;
22543;SDS011;11438;52.044;8.716;2022-07-24T10:21:28;4.95;;;3.17;;
22543;SDS011;11438;52.044;8.716;2022-07-24T10:26:33;3.88;;;3.08;;
22543;SDS011;11438;52.044;8.716;2022-07-24T10:29:08;4.82;;;3.55;;
22543;SDS011;11438;52.044;8.716;2022-07-24T10:31:46;4.55;;;3.63;;
22543;SDS011;11438;52.044;8.716;2022-07-24T10:40:27;4.68;;;3.58;;
22543;SDS011;11438;52.044;8.716;2022-07-24T10:43:14;4.10;;;3.33;;
22543;SDS011;11438;52.044;8.716;2022-07-24T10:53:21;5.00;;;3.83;;
22543;SDS011;11438;52.044;8.716;2022-07-24T10:55:52;4.55;;;3.47;;
22543;SDS011;11438;52.044;8.716;2022-07-24T10:58:20;5.18;;;3.33;;
22543;SDS011;11438;52.044;8.716;2022-07-24T11:03:21;5.63;;;3.63;;
22543;SDS011;11438;52.044;8.716;2022-07-24T11:09:06;3.47;;;3.17;;
22543;SDS011;11438;52.044;8.716;2022-07-24T11:11:26;3.80;;;3.10;;
22543;SDS011;11438;52.044;8.716;2022-07-24T11:13:53;5.07;;;3.85;;
22543;SDS011;11438;52.044;8.716;2022-07-24T11:16:20;3.55;;;2.92;;
22543;SDS011;11438;52.044;8.716;2022-07-24T11:21:28;4.22;;;3.50;;
22543;SDS011;11438;52.044;8.716;2022-07-24T11:26:38;3.92;;;3.53;;
22543;SDS011;11438;52.044;8.716;2022-07-24T11:29:14;4.35;;;3.53;;
22543;SDS011;11438;52.044;8.716;2022-07-24T11:31:42;3.67;;;3.03;;
22543;SDS011;11438;52.044;8.716;2022-07-24T11:34:09;3.90;;;3.10;;
22543;SDS011;11438;52.044;8.716;2022-07-24T11:36:35;3.70;;;3.40;;
22543;SDS011;11438;52.044;8.716;2022-07-24T11:39:03;4.80;;;3.40;;
22543;SDS011;11438;52.044;8.716;2022-07-24T11:41:28;4.05;;;3.05;;
22543;SDS011;11438;52.044;8.716;2022-07-24T11:44:37;4.18;;;3.50;;
22543;SDS011;11438;52.044;8.716;2022-07-24T11:49:44;4.50;;;3.58;;
22543;SDS011;11438;52.044;8.716;2022-07-24T11:52:26;5.25;;;3.80;;
22543;SDS011;11438;52.044;8.716;2022-07-24T11:54:53;5.43;;;3.80;;
22543;SDS011;11438;52.044;8.716;2022-07-24T11:57:21;4.25;;;3.47;;
22543;SDS011;11438;52.044;8.716;2022-07-24T11:59:52;5.82;;;3.45;;
22543;SDS011;11438;52.044;8.716;2022-07-24T12:02:19;5.07;;;3.17;;
22543;SDS011;11438;52.044;8.716;2022-07-24T12:04:45;4.13;;;3.42;;
22543;SDS011;11438;52.044;8.716;2022-07-24T12:07:13;4.53;;;3.83;;
22543;SDS011;11438;52.044;8.716;2022-07-24T12:09:43;4.70;;;3.63;;
22543;SDS011;11438;52.044;8.716;2022-07-24T12:12:23;7.82;;;3.38;;
22543;SDS011;11438;52.044;8.716;2022-07-24T12:15:08;6.60;;;3.75;;
22543;SDS011;11438;52.044;8.716;2022-07-24T12:20:23;4.82;;;3.60;;
22543;SDS011;11438;52.044;8.716;2022-07-24T12:22:51;4.00;;;3.60;;
22543;SDS011;11438;52.044;8.716;2022-07-24T12:25:18;4.47;;;3.60;;
22543;SDS011;11438;52.044;8.716;2022-07-24T12:27:44;4.47;;;3.40;;
22543;SDS011;11438;52.044;8.716;2022-07-24T12:30:16;5.63;;;3.58;;
22543;SDS011;11438;52.044;8.716;2022-07-24T12:32:57;3.45;;;3.15;;
22543;SDS011;11438;52.044;8.716;2022-07-24T12:35:28;4.78;;;3.30;;
22543;SDS011;11438;52.044;8.716;2022-07-24T12:37:56;4.20;;;3.63;;
22543;SDS011;11438;52.044;8.716;2022-07-24T12:40:24;4.25;;;3.67;;
22543;SDS011;11438;52.044;8.716;2022-07-24T12:42:56;4.30;;;3.50;;
22543;SDS011;11438;52.044;8.716;2022-07-24T12:45:22;3.92;;;3.50;;
22543;SDS011;11438;52.044;8.716;2022-07-24T12:48:04;3.90;;;3.42;;
22543;SDS011;11438;52.044;8.716;2022-07-24T12:50:50;3.72;;;3.15;;
22543;SDS011;11438;52.044;8.716;2022-07-24T12:53:23;3.47;;;3.17;;
22543;SDS011;11438;52.044;8.716;2022-07-24T12:56:02;4.45;;;3.33;;
22543;SDS011;11438;52.044;8.716;2022-07-24T13:01:15;4.18;;;3.00;;
22543;SDS011;11438;52.044;8.716;2022-07-24T13:03:40;3.78;;;3.30;;
22543;SDS011;11438;52.044;8.716;2022-07-24T13:06:07;4.97;;;3.42;;
22543;SDS011;11438;52.044;8.716;2022-07-24T13:08:33;4.13;;;3.22;;
22543;SDS011;11438;52.044;8.716;2022-07-24T13:10:59;3.40;;;2.92;;
22543;SDS011;11438;52.044;8.716;2022-07-24T13:13:24;4.22;;;3.75;;
22543;SDS011;11438;52.044;8.716;2022-07-24T13:15:50;4.00;;;3.13;;
22543;SDS011;11438;52.044;8.716;2022-07-24T13:18:15;4.93;;;3.63;;
22543;SDS011;11438;52.044;8.716;2022-07-24T13:20:41;3.50;;;3.10;;
22543;SDS011;11438;52.044;8.716;2022-07-24T13:23:06;4.05;;;3.35;;
22543;SDS011;11438;52.044;8.716;2022-07-24T13:25:32;4.40;;;3.00;;
22543;SDS011;11438;52.044;8.716;2022-07-24T13:27:57;3.25;;;2.95;;
22543;SDS011;11438;52.044;8.716;2022-07-24T13:30:23;4.22;;;3.63;;
22543;SDS011;11438;52.044;8.716;2022-07-24T13:32:48;4.13;;;2.90;;
22543;SDS011;11438;52.044;8.716;2022-07-24T13:35:14;3.33;;;3.00;;
22543;SDS011;11438;52.044;8.716;2022-07-24T13:37:39;3.47;;;3.15;;
22543;SDS011;11438;52.044;8.716;2022-07-24T13:40:06;3.97;;;3.10;;
22543;SDS011;11438;52.044;8.716;2022-07-24T13:42:33;3.88;;;3.47;;
22543;SDS011;11438;52.044;8.716;2022-07-24T13:44:59;4.30;;;3.20;;
22543;SDS011;11438;52.044;8.716;2022-07-24T13:47:24;3.40;;;3.00;;
22543;SDS011;11438;52.044;8.716;2022-07-24T13:49:50;4.47;;;3.10;;
22543;SDS011;11438;52.044;8.716;2022-07-24T13:52:15;3.63;;;2.85;;
22543;SDS011;11438;52.044;8.716;2022-07-24T13:54:41;4.93;;;3.00;;
22543;SDS011;11438;52.044;8.716;2022-07-24T13:57:06;3.22;;;2.75;;
22543;SDS011;11438;52.044;8.716;2022-07-24T13:59:32;4.03;;;2.88;;
22543;SDS011;11438;52.044;8.716;2022-07-24T14:01:58;3.00;;;2.65;;
22543;SDS011;11438;52.044;8.716;2022-07-24T14:04:23;4.30;;;3.08;;
22543;SDS011;11438;52.044;8.716;2022-07-24T14:06:49;4.38;;;3.00;;
22543;SDS011;11438;52.044;8.716;2022-07-24T14:09:15;3.70;;;2.80;;
22543;SDS011;11438;52.044;8.716;2022-07-24T14:11:40;3.90;;;3.10;;
22543;SDS011;11438;52.044;8.716;2022-07-24T14:14:06;3.72;;;2.90;;
22543;SDS011;11438;52.044;8.716;2022-07-24T14:16:31;3.10;;;2.80;;
22543;SDS011;11438;52.044;8.716;2022-07-24T14:18:57;3.95;;;2.70;;
22543;SDS011;11438;52.044;8.716;2022-07-24T14:21:23;3.08;;;2.70;;
22543;SDS011;11438;52.044;8.716;2022-07-24T14:23:49;3.20;;;2.90;;
22543;SDS011;11438;52.044;8.716;2022-07-24T14:26:14;3.00;;;2.70;;
22543;SDS011;11438;52.044;8.716;2022-07-24T14:28:40;3.47;;;2.65;;
22543;SDS011;11438;52.044;8.716;2022-07-24T14:31:06;3.08;;;2.58;;
22543;SDS011;11438;52.044;8.716;2022-07-24T14:33:32;3.00;;;2.70;;
22543;SDS011;11438;52.044;8.716;2022-07-24T14:35:58;3.90;;;3.00;;
22543;SDS011;11438;52.044;8.716;2022-07-24T14:38:25;3.22;;;2.92;;
22543;SDS011;11438;52.044;8.716;2022-07-24T14:40:50;3.55;;;2.60;;
22543;SDS011;11438;52.044;8.716;2022-07-24T14:43:16;2.88;;;2.50;;
22543;SDS011;11438;52.044;8.716;2022-07-24T14:45:41;3.22;;;2.75;;
22543;SDS011;11438;52.044;8.716;2022-07-24T14:48:07;3.25;;;2.50;;
22543;SDS011;11438;52.044;8.716;2022-07-24T14:50:32;2.72;;;2.53;;
22543;SDS011;11438;52.044;8.716;2022-07-24T14:52:58;4.10;;;2.33;;
22543;SDS011;11438;52.044;8.716;2022-07-24T14:55:23;3.10;;;2.78;;
22543;SDS011;11438;52.044;8.716;2022-07-24T14:57:49;2.60;;;2.35;;
22543;SDS011;11438;52.044;8.716;2022-07-24T15:00:14;2.80;;;2.50;;
22543;SDS011;11438;52.044;8.716;2022-07-24T15:02:40;3.50;;;2.40;;
22543;SDS011;11438;52.044;8.716;2022-07-24T15:05:06;5.65;;;2.58;;
22543;SDS011;11438;52.044;8.716;2022-07-24T15:07:31;3.53;;;2.70;;
22543;SDS011;11438;52.044;8.716;2022-07-24T15:09:57;3.03;;;2.60;;
22543;SDS011;11438;52.044;8.716;2022-07-24T15:12:23;3.72;;;2.80;;
22543;SDS011;11438;52.044;8.716;2022-07-24T15:14:48;7.05;;;2.50;;
22543;SDS011;11438;52.044;8.716;2022-07-24T15:17:14;3.17;;;2.72;;
22543;SDS011;11438;52.044;8.716;2022-07-24T15:19:39;3.25;;;2.78;;
22543;SDS011;11438;52.044;8.716;2022-07-24T15:22:05;3.05;;;2.60;;
22543;SDS011;11438;52.044;8.716;2022-07-24T15:24:30;3.90;;;2.80;;
22543;SDS011;11438;52.044;8.716;2022-07-24T15:26:56;3.53;;;2.55;;
22543;SDS011;11438;52.044;8.716;2022-07-24T15:29:21;3.67;;;2.50;;